Time;durP1;ratioP1;P1;durP2;ratioP2;P2;SDS_P1;SDS_P2;PMS_P1;PMS_P2;Temp;Humidity;BMP_temperature;BMP_pressure;BME280_temperature;BME280_humidity;BME280_pressure;Samples;Min_cycle;Max_cycle;Signal;HPM_P1;HPM_P2
2021/09/23 00:00:06;;;;;;;23.45;16.33;;;13.40;84.00;;;;;;5014281;28;20038;-90
2021/09/23 00:05:11;;;;;;;27.30;17.23;;;13.30;84.00;;;;;;5004598;28;20364;-91
2021/09/23 00:07:37;;;;;;;24.90;17.05;;;13.20;83.90;;;;;;5002319;28;20027;-91
2021/09/23 00:10:04;;;;;;;28.75;17.73;;;13.20;83.90;;;;;;5000308;28;20113;-92
2021/09/23 00:12:30;;;;;;;24.35;17.55;;;13.20;84.00;;;;;;4996773;28;20034;-90
2021/09/23 00:14:55;;;;;;;27.08;16.92;;;13.10;84.20;;;;;;4996817;28;20045;-91
2021/09/23 00:17:22;;;;;;;28.00;17.83;;;13.10;84.50;;;;;;4996924;28;20054;-91
2021/09/23 00:19:48;;;;;;;26.45;17.58;;;13.00;84.60;;;;;;5010724;28;20050;-90
2021/09/23 00:22:13;;;;;;;25.52;17.65;;;13.00;84.70;;;;;;4997589;28;20050;-88
2021/09/23 00:24:39;;;;;;;25.05;16.73;;;13.00;85.00;;;;;;4991575;28;20034;-90
2021/09/23 00:27:05;;;;;;;27.67;17.70;;;13.00;85.30;;;;;;5013188;28;20027;-91
2021/09/23 00:29:33;;;;;;;29.95;18.52;;;13.00;85.50;;;;;;4995013;28;20026;-92
2021/09/23 00:31:59;;;;;;;31.85;19.85;;;13.00;85.70;;;;;;4994399;28;20129;-91
2021/09/23 00:34:25;;;;;;;27.75;19.00;;;13.00;86.00;;;;;;4996284;28;20042;-91
2021/09/23 00:36:51;;;;;;;30.85;19.80;;;13.00;86.00;;;;;;4994249;28;20371;-91
2021/09/23 00:39:21;;;;;;;26.35;17.98;;;13.00;86.10;;;;;;4994461;28;20431;-91
2021/09/23 00:41:47;;;;;;;29.83;19.52;;;12.90;86.20;;;;;;4994968;28;20064;-91
2021/09/23 00:44:20;;;;;;;25.48;18.33;;;12.90;86.40;;;;;;4994519;28;20483;-90
2021/09/23 00:46:48;;;;;;;33.47;20.45;;;12.90;86.50;;;;;;5010660;28;20027;-91
2021/09/23 00:49:13;;;;;;;28.73;19.65;;;12.80;86.60;;;;;;4994527;28;20033;-92
2021/09/23 00:51:39;;;;;;;25.67;18.80;;;12.80;86.60;;;;;;4994800;28;20030;-92
2021/09/23 00:54:05;;;;;;;28.23;19.65;;;12.80;87.30;;;;;;5010912;28;20026;-92
2021/09/23 00:56:32;;;;;;;29.50;19.17;;;12.80;86.80;;;;;;4995756;28;20049;-90
2021/09/23 00:58:57;;;;;;;29.88;19.98;;;12.80;87.10;;;;;;5011219;28;20116;-91
2021/09/23 01:01:26;;;;;;;28.33;19.48;;;12.80;87.20;;;;;;4995601;28;20490;-92
2021/09/23 01:03:53;;;;;;;38.92;20.70;;;12.80;87.50;;;;;;4995049;28;20031;-93
2021/09/23 01:06:19;;;;;;;31.42;20.17;;;12.70;87.70;;;;;;5010340;28;20022;-92
2021/09/23 01:08:55;;;;;;;27.75;18.35;;;12.70;87.80;;;;;;4994161;28;20501;-92
2021/09/23 01:11:23;;;;;;;30.67;20.35;;;12.70;88.00;;;;;;5010264;28;20030;-92
2021/09/23 01:13:48;;;;;;;28.50;19.17;;;12.70;88.20;;;;;;5010279;28;20026;-91
2021/09/23 01:16:14;;;;;;;30.88;18.98;;;12.70;88.30;;;;;;4995103;28;20570;-91
2021/09/23 01:18:40;;;;;;;31.05;19.90;;;12.70;88.40;;;;;;4994523;28;20489;-91
2021/09/23 01:21:07;;;;;;;31.08;20.88;;;12.70;88.40;;;;;;5010875;28;20076;-92
2021/09/23 01:23:37;;;;;;;35.58;20.25;;;12.70;88.40;;;;;;4995612;28;20037;-92
2021/09/23 01:26:09;;;;;;;31.42;20.63;;;12.70;88.40;;;;;;5010694;28;20056;-93
2021/09/23 01:28:35;;;;;;;34.40;20.52;;;12.70;88.30;;;;;;4993604;28;20022;-89
2021/09/23 01:31:02;;;;;;;37.65;20.75;;;12.60;88.20;;;;;;4993920;28;20109;-92
2021/09/23 01:33:29;;;;;;;32.75;19.65;;;12.60;88.30;;;;;;4994384;28;20038;-91
2021/09/23 01:35:55;;;;;;;35.00;19.55;;;12.60;88.20;;;;;;4994094;28;20027;-88
2021/09/23 01:38:20;;;;;;;31.55;20.38;;;12.50;88.20;;;;;;4997676;28;20375;-92
2021/09/23 01:40:46;;;;;;;30.55;19.52;;;12.50;88.30;;;;;;5014649;28;20041;-93
2021/09/23 01:43:11;;;;;;;31.75;19.33;;;12.50;88.20;;;;;;4998807;28;20102;-91
2021/09/23 01:45:37;;;;;;;27.67;18.48;;;12.50;88.10;;;;;;4999684;28;20026;-92
2021/09/23 01:48:03;;;;;;;27.50;18.58;;;12.40;88.00;;;;;;4998637;28;20121;-93
2021/09/23 01:50:29;;;;;;;27.48;18.17;;;12.40;88.00;;;;;;4998327;28;20097;-91
2021/09/23 01:52:54;;;;;;;28.58;18.75;;;12.40;87.90;;;;;;4997567;28;20035;-92
2021/09/23 01:55:20;;;;;;;29.73;19.13;;;12.40;87.80;;;;;;4997733;28;20038;-93
2021/09/23 01:57:46;;;;;;;27.02;18.45;;;12.30;87.80;;;;;;4998407;28;20038;-94
2021/09/23 02:00:12;;;;;;;29.73;19.52;;;12.30;87.90;;;;;;4998887;28;20062;-92
2021/09/23 02:02:38;;;;;;;32.55;19.75;;;12.30;88.00;;;;;;4998394;28;20042;-93
2021/09/23 02:05:04;;;;;;;31.23;20.50;;;12.30;88.00;;;;;;4999481;28;20057;-92
2021/09/23 02:07:29;;;;;;;36.95;21.17;;;12.20;88.00;;;;;;4998620;28;20022;-94
2021/09/23 02:09:55;;;;;;;33.17;21.13;;;12.20;88.20;;;;;;4999363;28;20092;-93
2021/09/23 02:12:22;;;;;;;41.67;22.05;;;12.20;88.40;;;;;;4997689;28;20031;-92
2021/09/23 02:14:48;;;;;;;38.77;21.00;;;12.10;88.40;;;;;;4998357;28;20027;-92
2021/09/23 02:17:14;;;;;;;38.08;21.02;;;12.10;88.50;;;;;;4998111;28;20037;-94
2021/09/23 02:19:39;;;;;;;40.70;21.67;;;12.20;88.80;;;;;;4998937;28;20030;-92
2021/09/23 02:22:05;;;;;;;34.92;20.88;;;12.10;88.80;;;;;;4997187;28;20196;-93
2021/09/23 02:24:31;;;;;;;39.07;20.37;;;12.10;88.90;;;;;;5013968;28;20010;-93
2021/09/23 02:26:57;;;;;;;36.55;20.83;;;12.10;89.00;;;;;;4997298;28;20033;-92
2021/09/23 02:29:23;;;;;;;39.80;22.17;;;12.10;89.20;;;;;;4997449;28;20062;-92
2021/09/23 02:31:48;;;;;;;34.47;20.45;;;12.00;89.30;;;;;;4996660;28;20483;-92
2021/09/23 02:34:14;;;;;;;43.13;23.13;;;12.00;89.50;;;;;;4998090;28;20044;-93
2021/09/23 02:36:40;;;;;;;45.80;22.35;;;12.00;89.50;;;;;;4997864;28;20113;-93
2021/09/23 02:39:06;;;;;;;47.03;22.73;;;12.00;89.50;;;;;;4996334;28;20503;-91
2021/09/23 02:41:32;;;;;;;41.13;23.13;;;11.90;89.50;;;;;;5013364;28;20434;-90
2021/09/23 02:43:58;;;;;;;39.58;21.52;;;12.00;89.60;;;;;;5010779;28;20026;-92
2021/09/23 02:46:24;;;;;;;43.92;23.58;;;11.90;90.10;;;;;;4977859;28;20059;-90
2021/09/23 02:48:50;;;;;;;41.45;22.95;;;12.00;89.60;;;;;;4977202;28;20114;-94
2021/09/23 02:51:16;;;;;;;42.42;23.80;;;11.90;89.60;;;;;;4979581;28;20043;-91
2021/09/23 02:53:43;;;;;;;42.50;24.70;;;11.90;89.70;;;;;;4995787;28;20034;-93
2021/09/23 02:56:09;;;;;;;46.90;23.40;;;11.90;89.80;;;;;;4994247;28;20363;-92
2021/09/23 02:58:35;;;;;;;46.83;24.27;;;11.90;89.80;;;;;;4977755;28;20034;-92
2021/09/23 03:01:01;;;;;;;46.35;24.55;;;11.90;89.80;;;;;;4977107;28;20031;-92
2021/09/23 03:03:26;;;;;;;36.75;22.10;;;11.90;89.70;;;;;;4978903;28;20038;-93
2021/09/23 03:05:52;;;;;;;42.00;23.65;;;11.90;89.80;;;;;;4977631;28;20054;-92
2021/09/23 03:08:18;;;;;;;43.60;23.30;;;11.90;89.70;;;;;;4993268;28;20035;-94
2021/09/23 03:10:43;;;;;;;40.67;22.90;;;11.90;89.70;;;;;;4977263;28;20085;-94
2021/09/23 03:13:09;;;;;;;40.95;23.35;;;11.80;89.60;;;;;;4977213;28;20038;-92
2021/09/23 03:15:35;;;;;;;38.53;22.77;;;12.00;89.70;;;;;;4977302;28;20030;-93
2021/09/23 03:18:01;;;;;;;37.38;22.23;;;11.80;89.50;;;;;;4977124;28;20027;-92
2021/09/23 03:20:27;;;;;;;44.58;23.08;;;11.80;89.50;;;;;;4977184;28;20062;-93
2021/09/23 03:22:53;;;;;;;39.70;22.08;;;11.80;89.50;;;;;;4976722;28;20488;-92
2021/09/23 03:25:19;;;;;;;40.15;21.52;;;11.80;89.60;;;;;;4979397;28;20034;-92
2021/09/23 03:27:45;;;;;;;44.45;24.90;;;11.80;89.60;;;;;;4981377;28;20035;-90
2021/09/23 03:30:12;;;;;;;45.07;24.47;;;11.80;89.70;;;;;;4979144;28;20082;-94
2021/09/23 03:32:38;;;;;;;46.07;22.97;;;11.80;89.70;;;;;;4976606;28;20054;-92
2021/09/23 03:35:04;;;;;;;36.95;23.23;;;11.70;89.70;;;;;;4977558;28;20031;-93
2021/09/23 03:37:29;;;;;;;40.97;22.67;;;11.70;89.80;;;;;;4993104;28;20031;-92
2021/09/23 03:39:55;;;;;;;45.25;24.90;;;11.70;90.00;;;;;;4976801;28;20026;-91
2021/09/23 03:42:21;;;;;;;42.10;23.20;;;11.70;90.00;;;;;;4978225;28;20051;-91
2021/09/23 03:44:48;;;;;;;40.37;23.40;;;11.70;90.00;;;;;;4977743;28;20092;-90
2021/09/23 03:47:14;;;;;;;44.75;24.13;;;11.60;90.10;;;;;;4977113;28;20034;-91
2021/09/23 03:49:41;;;;;;;41.30;23.47;;;11.60;90.10;;;;;;4978352;28;20033;-91
2021/09/23 03:52:06;;;;;;;41.13;23.90;;;11.60;90.10;;;;;;4976943;28;20031;-91
2021/09/23 03:54:32;;;;;;;42.90;24.13;;;11.60;90.10;;;;;;4978720;28;20096;-92
2021/09/23 03:56:58;;;;;;;39.73;23.27;;;11.60;90.20;;;;;;4977521;28;20031;-92
2021/09/23 03:59:23;;;;;;;45.27;26.13;;;11.60;90.20;;;;;;4977390;28;20111;-92
2021/09/23 04:01:49;;;;;;;34.07;22.47;;;11.60;90.30;;;;;;4975076;28;20479;-89
2021/09/23 04:04:16;;;;;;;40.83;23.20;;;11.60;90.30;;;;;;4977027;28;20034;-90
2021/09/23 04:06:42;;;;;;;39.83;24.13;;;11.60;90.30;;;;;;4992152;28;20073;-90
2021/09/23 04:09:09;;;;;;;39.73;24.60;;;11.60;90.40;;;;;;4976238;28;20031;-92
2021/09/23 04:11:35;;;;;;;40.47;23.77;;;11.50;90.40;;;;;;4976090;28;20555;-93
2021/09/23 04:14:01;;;;;;;44.67;24.87;;;11.60;90.50;;;;;;4976099;28;20058;-93
2021/09/23 04:16:27;;;;;;;43.13;24.40;;;11.50;90.50;;;;;;4976210;28;20376;-90
2021/09/23 04:18:52;;;;;;;42.50;23.67;;;11.50;90.80;;;;;;4975953;28;20035;-92
2021/09/23 04:21:18;;;;;;;39.08;24.00;;;11.50;90.50;;;;;;4976602;28;20047;-92
2021/09/23 04:23:43;;;;;;;43.50;23.97;;;11.50;90.50;;;;;;4975276;28;20031;-91
2021/09/23 04:26:09;;;;;;;40.33;24.60;;;11.50;90.50;;;;;;4976754;28;20031;-91
2021/09/23 04:28:35;;;;;;;44.03;25.57;;;11.50;90.60;;;;;;4976652;28;20088;-90
2021/09/23 04:31:00;;;;;;;44.87;25.40;;;11.50;90.60;;;;;;4975170;28;20031;-90
2021/09/23 04:33:27;;;;;;;43.47;25.63;;;11.50;90.60;;;;;;4975289;28;20058;-89
2021/09/23 04:35:54;;;;;;;42.43;25.37;;;11.50;90.70;;;;;;4991907;28;20037;-91
2021/09/23 04:38:20;;;;;;;40.33;24.40;;;11.50;90.70;;;;;;4976276;28;20023;-90
2021/09/23 04:40:46;;;;;;;40.97;24.90;;;11.50;90.70;;;;;;4976107;28;20077;-90
2021/09/23 04:43:11;;;;;;;38.60;23.87;;;11.50;90.70;;;;;;4975501;28;20039;-92
2021/09/23 04:45:37;;;;;;;40.95;25.23;;;11.50;90.70;;;;;;4975127;28;20397;-90
2021/09/23 04:48:04;;;;;;;45.67;24.73;;;11.50;90.70;;;;;;4976246;28;20072;-89
2021/09/23 04:50:29;;;;;;;39.37;24.10;;;11.40;90.70;;;;;;4974983;28;20031;-91
2021/09/23 04:52:56;;;;;;;38.87;23.60;;;11.40;90.70;;;;;;4991734;28;20109;-90
2021/09/23 04:55:22;;;;;;;42.60;25.47;;;11.40;90.80;;;;;;4974965;28;20027;-92
2021/09/23 04:57:47;;;;;;;38.90;25.90;;;11.40;90.80;;;;;;4975938;28;20038;-90
2021/09/23 05:00:14;;;;;;;38.03;24.63;;;11.40;90.90;;;;;;4974874;28;20031;-91
2021/09/23 05:02:39;;;;;;;37.80;24.50;;;11.40;90.90;;;;;;4975186;28;20078;-93
2021/09/23 05:05:05;;;;;;;43.47;27.53;;;11.40;91.00;;;;;;4975280;28;20442;-93
2021/09/23 05:07:31;;;;;;;41.42;25.75;;;11.40;91.00;;;;;;5007425;28;20038;-92
2021/09/23 05:09:56;;;;;;;42.67;23.95;;;11.50;91.10;;;;;;4975368;28;20121;-92
2021/09/23 05:12:22;;;;;;;39.77;24.80;;;11.50;91.10;;;;;;4975244;28;20114;-91
2021/09/23 05:14:48;;;;;;;41.63;24.10;;;11.50;91.20;;;;;;4975112;28;20037;-91
2021/09/23 05:17:14;;;;;;;43.72;24.50;;;11.50;91.10;;;;;;4974840;28;20057;-90
2021/09/23 05:19:40;;;;;;;40.63;25.03;;;11.50;91.10;;;;;;4974506;28;20035;-92
2021/09/23 05:22:06;;;;;;;46.08;26.05;;;11.50;91.10;;;;;;4975759;28;20047;-92
2021/09/23 05:24:31;;;;;;;38.67;24.65;;;11.50;91.10;;;;;;4974710;28;20085;-92
2021/09/23 05:26:57;;;;;;;38.47;24.40;;;11.50;91.20;;;;;;4989440;28;20117;-90
2021/09/23 05:29:23;;;;;;;40.28;25.05;;;11.50;91.20;;;;;;4983396;28;20157;-85
2021/09/23 05:31:48;;;;;;;38.03;25.00;;;11.50;91.20;;;;;;4993838;28;20054;-87
2021/09/23 05:34:14;;;;;;;41.17;24.17;;;11.50;91.30;;;;;;5008943;28;20038;-91
2021/09/23 05:36:40;;;;;;;41.67;24.93;;;11.50;91.40;;;;;;4993521;28;20030;-91
2021/09/23 05:39:05;;;;;;;38.80;23.38;;;11.50;91.30;;;;;;4993057;28;20463;-91
2021/09/23 05:41:31;;;;;;;38.20;24.90;;;11.50;91.40;;;;;;4984934;28;20053;-91
2021/09/23 05:43:58;;;;;;;44.40;26.60;;;11.60;91.40;;;;;;4989353;28;20026;-90
2021/09/23 05:46:24;;;;;;;40.90;27.00;;;11.50;91.40;;;;;;4993225;28;20073;-90
2021/09/23 05:48:49;;;;;;;35.17;24.05;;;11.50;91.40;;;;;;5025989;28;20022;-91
2021/09/23 05:51:15;;;;;;;39.93;24.97;;;11.60;91.50;;;;;;4992783;28;20141;-91
2021/09/23 05:53:41;;;;;;;37.50;25.03;;;11.60;91.50;;;;;;4992261;28;20022;-90
2021/09/23 05:56:06;;;;;;;40.50;25.70;;;11.60;91.50;;;;;;4993333;28;20058;-90
2021/09/23 05:58:32;;;;;;;40.75;25.92;;;11.60;91.50;;;;;;4990283;28;20022;-90
2021/09/23 06:00:57;;;;;;;40.47;24.80;;;11.60;91.90;;;;;;5024860;28;20479;-89
2021/09/23 06:03:23;;;;;;;42.73;26.27;;;11.60;91.60;;;;;;4990662;28;20446;-90
2021/09/23 06:05:49;;;;;;;38.03;25.17;;;11.60;91.60;;;;;;5009292;28;20039;-90
2021/09/23 06:08:15;;;;;;;40.83;24.88;;;11.70;91.60;;;;;;4992858;28;20034;-90
2021/09/23 06:10:41;;;;;;;42.53;25.30;;;11.70;91.60;;;;;;4992508;28;20023;-91
2021/09/23 06:13:07;;;;;;;28.77;21.17;;;11.70;91.60;;;;;;4993934;28;20019;-89
2021/09/23 06:15:33;;;;;;;34.80;24.08;;;11.80;91.90;;;;;;4994245;28;20030;-90
2021/09/23 06:17:59;;;;;;;37.75;24.50;;;11.80;91.60;;;;;;5026782;28;20356;-90
2021/09/23 06:20:24;;;;;;;38.05;23.52;;;11.80;91.70;;;;;;5010053;28;20041;-90
2021/09/23 06:22:51;;;;;;;40.05;24.42;;;11.90;91.70;;;;;;4994644;28;20455;-92
2021/09/23 06:25:17;;;;;;;43.90;27.95;;;11.90;91.80;;;;;;4997265;28;20068;-92
2021/09/23 06:27:43;;;;;;;44.00;25.98;;;11.90;92.00;;;;;;4996852;28;20037;-90
2021/09/23 06:30:12;;;;;;;42.55;27.90;;;12.00;92.00;;;;;;5029448;28;20038;-89
2021/09/23 06:32:37;;;;;;;38.55;25.45;;;12.00;92.10;;;;;;5012199;28;20050;-91
2021/09/23 06:35:03;;;;;;;40.97;26.27;;;12.10;92.00;;;;;;4990474;28;20023;-93
2021/09/23 06:37:29;;;;;;;42.40;25.52;;;12.10;92.00;;;;;;4996144;28;20453;-93
2021/09/23 06:39:55;;;;;;;41.90;28.10;;;12.20;92.20;;;;;;4997378;28;20061;-93
2021/09/23 06:42:21;;;;;;;46.45;29.85;;;12.30;92.30;;;;;;4988393;28;20069;-94
2021/09/23 06:44:46;;;;;;;46.22;30.95;;;12.30;92.50;;;;;;4990031;28;20031;-93
2021/09/23 06:47:13;;;;;;;45.65;29.60;;;12.40;92.60;;;;;;4997365;28;20102;-93
2021/09/23 06:49:38;;;;;;;45.55;30.55;;;12.40;92.40;;;;;;4990501;28;20091;-93
2021/09/23 06:52:05;;;;;;;49.83;31.70;;;12.40;92.60;;;;;;4962846;28;20081;-85
2021/09/23 06:54:30;;;;;;;48.40;32.85;;;12.50;92.90;;;;;;5003608;28;20038;-89
2021/09/23 06:56:56;;;;;;;48.65;31.75;;;12.50;93.00;;;;;;4985788;28;20387;-91
2021/09/23 06:59:21;;;;;;;47.97;31.55;;;12.60;93.10;;;;;;4990383;28;20114;-88
2021/09/23 07:01:48;;;;;;;52.45;32.20;;;12.60;93.00;;;;;;4980326;28;20080;-86
2021/09/23 07:04:15;;;;;;;44.22;29.92;;;12.70;93.10;;;;;;4985363;28;20042;-87
2021/09/23 07:06:41;;;;;;;50.35;32.08;;;12.80;93.10;;;;;;4985997;28;20152;-88
2021/09/23 07:09:08;;;;;;;49.88;30.25;;;12.80;93.00;;;;;;4970067;28;20030;-89
2021/09/23 07:11:34;;;;;;;43.55;30.05;;;12.90;93.10;;;;;;4997074;28;20031;-87
2021/09/23 07:14:00;;;;;;;48.20;30.48;;;12.90;93.10;;;;;;4976098;28;20026;-87
2021/09/23 07:16:25;;;;;;;48.95;31.65;;;13.00;93.30;;;;;;4975204;28;20034;-82
2021/09/23 07:18:51;;;;;;;51.75;35.33;;;13.00;93.40;;;;;;5007047;28;20037;-83
2021/09/23 07:21:17;;;;;;;49.88;32.70;;;13.00;93.70;;;;;;4976197;28;20035;-80
2021/09/23 07:23:42;;;;;;;56.85;34.08;;;13.10;93.80;;;;;;4991174;28;20035;-81
2021/09/23 07:26:08;;;;;;;48.58;32.20;;;13.20;93.80;;;;;;4990830;28;20035;-82
2021/09/23 07:28:34;;;;;;;45.15;30.55;;;13.30;93.90;;;;;;4974735;28;20058;-85
2021/09/23 07:31:01;;;;;;;48.90;30.88;;;13.40;93.90;;;;;;4974200;28;20041;-80
2021/09/23 07:33:27;;;;;;;50.38;32.17;;;13.50;93.90;;;;;;4973965;28;20047;-80
2021/09/23 07:35:54;;;;;;;55.35;34.55;;;13.50;94.10;;;;;;4974985;28;20031;-81
2021/09/23 07:38:20;;;;;;;46.72;33.20;;;13.60;94.20;;;;;;4974172;28;20464;-82
2021/09/23 07:40:46;;;;;;;53.40;32.17;;;13.70;94.20;;;;;;5006789;28;20110;-81
2021/09/23 07:43:12;;;;;;;52.03;32.55;;;13.80;94.20;;;;;;4974277;28;20544;-81
2021/09/23 07:45:38;;;;;;;55.15;35.33;;;13.90;94.20;;;;;;4974552;28;20039;-80
2021/09/23 07:48:04;;;;;;;46.60;30.00;;;14.00;94.40;;;;;;4975006;28;20031;-85
2021/09/23 07:50:30;;;;;;;43.20;29.20;;;14.00;94.10;;;;;;4965331;28;20026;-82
2021/09/23 07:52:56;;;;;;;45.53;30.90;;;14.10;94.20;;;;;;4994594;28;20569;-83
2021/09/23 07:55:21;;;;;;;43.45;30.60;;;14.20;94.10;;;;;;4993419;28;20483;-85
2021/09/23 07:57:47;;;;;;;40.25;28.05;;;14.30;94.30;;;;;;4969560;28;20026;-84
2021/09/23 08:00:13;;;;;;;43.65;30.55;;;14.40;94.30;;;;;;4989413;28;20034;-84
2021/09/23 08:02:39;;;;;;;45.85;32.13;;;14.50;94.30;;;;;;4992096;28;20053;-84
2021/09/23 08:05:05;;;;;;;46.15;30.85;;;14.60;94.20;;;;;;4993032;28;20038;-82
2021/09/23 08:07:31;;;;;;;39.47;28.55;;;14.70;94.30;;;;;;4994092;28;20415;-87
2021/09/23 08:09:56;;;;;;;42.60;30.25;;;14.70;94.10;;;;;;4994533;28;20081;-83
2021/09/23 08:12:22;;;;;;;43.40;28.90;;;14.80;94.10;;;;;;4993274;28;20056;-81
2021/09/23 08:14:48;;;;;;;45.60;27.80;;;14.90;94.00;;;;;;4994677;28;20030;-86
2021/09/23 08:17:13;;;;;;;49.72;31.23;;;14.90;94.00;;;;;;4977554;28;20486;-82
2021/09/23 08:19:39;;;;;;;45.78;28.67;;;15.00;94.10;;;;;;4994846;28;20475;-82
2021/09/23 08:22:06;;;;;;;39.28;27.63;;;15.10;94.00;;;;;;5024227;28;20529;-81
2021/09/23 08:24:33;;;;;;;43.15;27.00;;;15.20;94.00;;;;;;4991003;28;20030;-80
2021/09/23 08:26:58;;;;;;;41.28;28.58;;;15.20;93.90;;;;;;4992143;28;20685;-84
2021/09/23 08:29:24;;;;;;;37.10;25.92;;;15.30;93.80;;;;;;4976961;28;20054;-82
2021/09/23 08:31:50;;;;;;;37.78;25.00;;;15.40;93.70;;;;;;4992474;28;20438;-82
2021/09/23 08:34:16;;;;;;;39.88;26.40;;;15.50;93.60;;;;;;5008956;28;20033;-83
2021/09/23 08:36:43;;;;;;;40.70;26.23;;;15.50;93.50;;;;;;4975871;28;20445;-83
2021/09/23 08:39:09;;;;;;;32.97;22.50;;;15.60;93.40;;;;;;4976467;28;20030;-82
2021/09/23 08:41:38;;;;;;;32.63;22.48;;;15.80;93.30;;;;;;4993918;28;20047;-82
2021/09/23 08:44:04;;;;;;;34.13;23.23;;;15.80;93.10;;;;;;4984018;28;20026;-83
2021/09/23 08:46:34;;;;;;;33.55;24.15;;;15.90;92.80;;;;;;4972531;28;20031;-82
2021/09/23 08:49:05;;;;;;;38.33;25.83;;;16.00;92.60;;;;;;4981064;28;20455;-83
2021/09/23 08:51:30;;;;;;;35.50;23.52;;;16.20;92.40;;;;;;5006917;28;20026;-82
2021/09/23 08:53:56;;;;;;;31.85;21.25;;;16.20;92.20;;;;;;4994219;28;20172;-81
2021/09/23 08:56:23;;;;;;;36.38;23.50;;;16.30;92.20;;;;;;4992399;28;20034;-83
2021/09/23 08:58:49;;;;;;;36.53;24.00;;;16.40;92.10;;;;;;4993311;28;20038;-85
2021/09/23 09:01:18;;;;;;;35.17;23.88;;;16.40;91.80;;;;;;4987802;28;20487;-84
2021/09/23 09:03:45;;;;;;;35.88;24.95;;;16.50;91.80;;;;;;5001010;28;20049;-86
2021/09/23 09:06:12;;;;;;;33.20;23.33;;;16.50;91.70;;;;;;4957230;28;20061;-82
2021/09/23 09:08:40;;;;;;;28.35;21.27;;;16.60;91.80;;;;;;4972800;28;20514;-84
2021/09/23 09:11:08;;;;;;;32.58;23.20;;;16.70;91.70;;;;;;4974591;28;20053;-85
2021/09/23 09:13:39;;;;;;;31.08;21.50;;;16.80;91.50;;;;;;4973735;28;20019;-84
2021/09/23 09:16:10;;;;;;;32.58;20.42;;;16.80;91.40;;;;;;4974878;28;20102;-82
2021/09/23 09:18:37;;;;;;;36.28;21.73;;;16.90;91.30;;;;;;4974574;28;20517;-85
2021/09/23 09:21:07;;;;;;;31.88;20.70;;;16.90;91.30;;;;;;4975064;28;20042;-87
2021/09/23 09:23:56;;;;;;;24.02;16.20;;;17.00;91.20;;;;;;4974938;28;20028;-86
2021/09/23 09:26:32;;;;;;;28.08;17.20;;;17.10;91.10;;;;;;4974208;28;20404;-87
2021/09/23 09:29:00;;;;;;;23.15;15.23;;;17.10;90.70;;;;;;4972230;28;20034;-83
2021/09/23 09:31:27;;;;;;;21.27;14.25;;;17.10;90.90;;;;;;4982163;28;20058;-84
2021/09/23 09:33:55;;;;;;;26.55;16.55;;;17.20;90.60;;;;;;4983741;28;20051;-86
2021/09/23 09:36:23;;;;;;;25.20;15.45;;;17.20;90.20;;;;;;4982825;28;20029;-83
2021/09/23 09:38:51;;;;;;;26.40;15.00;;;17.30;90.10;;;;;;5015533;28;20098;-83
2021/09/23 09:41:21;;;;;;;22.20;16.42;;;17.30;90.00;;;;;;4983916;28;20043;-82
2021/09/23 09:43:49;;;;;;;22.27;14.85;;;17.30;89.90;;;;;;4983282;28;20034;-84
2021/09/23 09:46:33;;;;;;;19.55;14.43;;;17.40;89.90;;;;;;4983539;28;20038;-85
2021/09/23 09:49:00;;;;;;;23.33;16.00;;;17.60;89.60;;;;;;4975101;28;20069;-90
2021/09/23 09:51:42;;;;;;;19.67;13.65;;;17.80;89.40;;;;;;4958495;28;20027;-87
2021/09/23 09:54:09;;;;;;;23.50;15.00;;;18.00;88.80;;;;;;4979353;28;20110;-87
2021/09/23 09:56:37;;;;;;;21.80;14.70;;;18.20;87.80;;;;;;4987594;28;20082;-89
2021/09/23 09:59:11;;;;;;;22.10;13.65;;;18.40;86.50;;;;;;4987440;28;21245;-88
2021/09/23 10:01:38;;;;;;;19.55;13.35;;;18.70;85.90;;;;;;5011662;28;20483;-88
2021/09/23 10:04:05;;;;;;;16.50;11.48;;;19.10;85.30;;;;;;4987850;28;20026;-86
2021/09/23 10:06:32;;;;;;;18.52;11.93;;;19.40;84.80;;;;;;4990352;28;20034;-87
2021/09/23 10:08:58;;;;;;;19.73;13.05;;;19.90;83.10;;;;;;4991302;28;20023;-88
2021/09/23 10:11:25;;;;;;;17.13;12.00;;;20.10;78.30;;;;;;4975259;28;20041;-87
2021/09/23 10:13:54;;;;;;;16.40;11.25;;;20.00;78.60;;;;;;4987951;28;20054;-87
2021/09/23 10:16:20;;;;;;;18.88;11.27;;;20.00;78.40;;;;;;4987433;28;20101;-90
2021/09/23 10:18:46;;;;;;;19.58;12.00;;;20.00;77.70;;;;;;4988758;28;20105;-88
2021/09/23 10:21:12;;;;;;;18.70;11.77;;;19.80;77.90;;;;;;4987319;28;20042;-88
2021/09/23 10:23:41;;;;;;;22.38;11.65;;;19.70;77.60;;;;;;4987110;28;20023;-89
2021/09/23 10:26:15;;;;;;;17.52;12.25;;;19.60;77.80;;;;;;4990956;28;20482;-86
2021/09/23 10:28:45;;;;;;;14.95;9.60;;;19.50;78.20;;;;;;4995999;28;20042;-88
2021/09/23 10:31:19;;;;;;;14.15;10.25;;;19.50;78.30;;;;;;4997019;28;20084;-89
2021/09/23 10:33:46;;;;;;;16.30;9.43;;;19.50;79.00;;;;;;4997128;28;20050;-89
2021/09/23 10:36:13;;;;;;;16.73;9.60;;;19.40;78.30;;;;;;5012447;28;20031;-88
2021/09/23 10:38:41;;;;;;;14.23;9.02;;;19.50;78.20;;;;;;4996790;28;20114;-88
2021/09/23 10:41:07;;;;;;;16.27;10.43;;;19.40;78.10;;;;;;5012115;28;20121;-87
2021/09/23 10:43:33;;;;;;;17.83;10.88;;;19.30;78.30;;;;;;4996101;28;20069;-85
2021/09/23 10:46:04;;;;;;;17.42;9.63;;;19.20;78.90;;;;;;4995878;28;20085;-88
2021/09/23 10:48:34;;;;;;;18.60;10.02;;;19.10;79.40;;;;;;4996297;28;20036;-88
2021/09/23 10:51:02;;;;;;;17.70;8.13;;;19.00;79.70;;;;;;4997029;28;20141;-87
2021/09/23 10:53:31;;;;;;;17.98;7.30;;;19.00;78.90;;;;;;4996544;28;20038;-89
2021/09/23 10:56:08;;;;;;;10.57;6.20;;;18.90;79.10;;;;;;4997493;28;20026;-87
2021/09/23 10:58:35;;;;;;;12.82;6.03;;;18.90;78.70;;;;;;4997047;28;20022;-88
2021/09/23 11:01:03;;;;;;;12.30;5.78;;;18.80;78.70;;;;;;4996033;28;20022;-88
2021/09/23 11:03:39;;;;;;;11.95;5.70;;;18.90;79.10;;;;;;4996617;28;20073;-88
2021/09/23 11:06:11;;;;;;;11.75;5.05;;;18.80;79.10;;;;;;4982708;28;20039;-89
2021/09/23 11:08:41;;;;;;;7.35;4.35;;;18.90;79.50;;;;;;4996760;28;20031;-87
2021/09/23 11:11:11;;;;;;;10.30;5.60;;;18.80;79.80;;;;;;4977017;28;20039;-85
2021/09/23 11:13:39;;;;;;;10.25;5.80;;;18.80;80.10;;;;;;4987354;28;20378;-87
2021/09/23 11:16:07;;;;;;;9.43;5.45;;;18.80;80.40;;;;;;4995535;28;20060;-88
2021/09/23 11:18:35;;;;;;;10.45;6.38;;;18.80;80.50;;;;;;4996880;28;20030;-87
2021/09/23 11:21:02;;;;;;;12.88;7.13;;;18.80;80.70;;;;;;4986348;28;20387;-87
2021/09/23 11:23:28;;;;;;;10.38;5.80;;;18.80;80.90;;;;;;4986665;28;20520;-88
2021/09/23 11:25:54;;;;;;;11.90;5.30;;;18.80;80.80;;;;;;4976232;28;20023;-87
2021/09/23 11:28:22;;;;;;;12.68;4.55;;;18.70;80.90;;;;;;4975797;28;20035;-87
2021/09/23 11:30:50;;;;;;;12.68;4.50;;;18.70;80.60;;;;;;4977599;28;20027;-88
2021/09/23 11:33:17;;;;;;;12.75;3.63;;;18.70;80.00;;;;;;4978303;28;20051;-85
2021/09/23 11:35:45;;;;;;;6.63;3.35;;;18.70;79.80;;;;;;4960374;28;20086;-88
2021/09/23 11:38:14;;;;;;;9.65;3.13;;;18.70;78.80;;;;;;4976926;28;20023;-88
2021/09/23 11:40:42;;;;;;;9.77;3.25;;;18.70;78.20;;;;;;4960444;28;20492;-88
2021/09/23 11:43:11;;;;;;;8.90;2.80;;;18.70;78.40;;;;;;5008093;28;20042;-88
2021/09/23 11:45:39;;;;;;;9.27;2.83;;;18.70;78.50;;;;;;4976670;28;20467;-85
2021/09/23 11:48:10;;;;;;;13.27;3.20;;;18.90;78.40;;;;;;4976216;28;20035;-89
2021/09/23 11:50:51;;;;;;;13.52;3.50;;;19.20;78.00;;;;;;4976064;28;20082;-86
2021/09/23 11:53:39;;;;;;;5.78;2.35;;;20.00;78.30;;;;;;4979737;28;20023;-88
2021/09/23 11:56:09;;;;;;;4.53;1.42;;;20.80;77.70;;;;;;5009428;28;20037;-90
2021/09/23 11:58:38;;;;;;;5.65;1.60;;;21.40;75.80;;;;;;4986924;28;20030;-88
2021/09/23 12:01:05;;;;;;;5.50;1.75;;;21.70;74.20;;;;;;4987092;28;20149;-87
2021/09/23 12:03:37;;;;;;;12.68;3.05;;;21.90;72.40;;;;;;4985532;28;20094;-87
2021/09/23 12:06:07;;;;;;;8.55;2.08;;;22.30;70.80;;;;;;5009108;28;20762;-91
2021/09/23 12:08:32;;;;;;;10.63;2.15;;;22.50;69.30;;;;;;4995459;28;20113;-89
2021/09/23 12:11:01;;;;;;;3.47;1.40;;;22.70;68.60;;;;;;4994921;28;20058;-89
2021/09/23 12:13:37;;;;;;;8.13;1.90;;;22.80;68.20;;;;;;4994922;28;20030;-87
2021/09/23 12:16:09;;;;;;;5.43;1.70;;;22.90;67.70;;;;;;4994596;28;20026;-91
2021/09/23 12:18:35;;;;;;;5.88;1.67;;;22.90;67.00;;;;;;4996029;28;20090;-90
2021/09/23 12:21:15;;;;;;;6.35;1.65;;;23.00;66.60;;;;;;4996110;28;20030;-89
2021/09/23 12:23:56;;;;;;;7.50;1.67;;;23.00;66.00;;;;;;4995463;28;20030;-89
2021/09/23 12:26:30;;;;;;;7.10;1.83;;;23.00;65.70;;;;;;4996080;28;20498;-88
2021/09/23 12:29:17;;;;;;;5.75;1.65;;;23.00;65.50;;;;;;4996044;28;20045;-89